Time;durP1;ratioP1;P1;durP2;ratioP2;P2;SDS_P1;SDS_P2;PMS_P1;PMS_P2;Temp;Humidity;BMP_temperature;BMP_pressure;BME280_temperature;BME280_humidity;BME280_pressure;Samples;Min_cycle;Max_cycle;Signal;HPM_P1;HPM_P2
2022/03/02 00:02:24;;;;;;;0.63;0.63;;;;;;;23.34;14.65;101288.53;5052801;28;20025;-73
2022/03/02 00:04:50;;;;;;;0.70;0.70;;;;;;;23.32;14.71;101274.34;5053149;28;20029;-75
2022/03/02 00:07:15;;;;;;;0.63;0.63;;;;;;;23.34;14.65;101294.00;5055791;28;20044;-75
2022/03/02 00:09:41;;;;;;;0.60;0.60;;;;;;;23.34;14.49;101291.28;5056944;28;20398;-75
2022/03/02 00:12:06;;;;;;;0.82;0.82;;;;;;;23.36;14.59;101286.38;5057215;28;20060;-75
2022/03/02 00:14:32;;;;;;;0.80;0.70;;;;;;;23.35;14.72;101276.56;5056771;28;20035;-74
2022/03/02 00:16:57;;;;;;;0.63;0.63;;;;;;;23.33;14.58;101269.69;5056722;28;20028;-74
2022/03/02 00:19:23;;;;;;;0.70;0.70;;;;;;;23.34;14.79;101261.28;5057011;28;20048;-74
2022/03/02 00:21:48;;;;;;;0.82;0.82;;;;;;;23.33;14.62;101262.34;5056451;28;20057;-73
2022/03/02 00:24:14;;;;;;;1.15;0.77;;;;;;;23.28;14.76;101248.63;5056949;28;20045;-75
2022/03/02 00:26:40;;;;;;;0.77;0.77;;;;;;;23.32;14.73;101247.06;5057177;28;20036;-74
2022/03/02 00:29:05;;;;;;;0.70;0.60;;;;;;;23.32;14.79;101241.59;5056480;28;20017;-74
2022/03/02 00:31:31;;;;;;;0.73;0.68;;;;;;;23.29;14.70;101238.56;5056845;28;20028;-74
2022/03/02 00:33:56;;;;;;;0.90;0.80;;;;;;;23.31;14.92;101237.22;5056433;28;20056;-74
2022/03/02 00:36:22;;;;;;;0.82;0.80;;;;;;;23.29;14.65;101247.56;5056443;28;20029;-72
2022/03/02 00:38:47;;;;;;;0.70;0.70;;;;;;;23.29;14.80;101244.84;5056250;28;20027;-72
2022/03/02 00:41:13;;;;;;;0.70;0.70;;;;;;;23.31;14.93;101239.13;5056496;28;20056;-72
2022/03/02 00:43:38;;;;;;;0.60;0.60;;;;;;;23.29;14.82;101233.94;5056207;28;20413;-71
2022/03/02 00:46:04;;;;;;;0.90;0.73;;;;;;;23.32;14.74;101236.16;5056519;28;20067;-74
2022/03/02 00:48:29;;;;;;;0.60;0.60;;;;;;;23.32;14.95;101240.75;5056280;28;20463;-71
2022/03/02 00:50:55;;;;;;;0.80;0.80;;;;;;;23.29;14.86;101236.66;5056121;28;20037;-71
2022/03/02 00:53:21;;;;;;;0.77;0.77;;;;;;;23.29;14.96;101230.38;5056460;28;20025;-71
2022/03/02 00:55:46;;;;;;;0.90;0.80;;;;;;;23.25;14.84;101221.88;5038271;28;20471;-72
2022/03/02 00:58:12;;;;;;;1.00;0.70;;;;;;;23.32;15.03;101225.25;5056338;28;20094;-71
2022/03/02 01:00:37;;;;;;;0.90;0.80;;;;;;;23.28;14.99;101224.09;5055985;28;20476;-71
2022/03/02 01:03:03;;;;;;;1.17;0.90;;;;;;;23.30;15.01;101221.09;5056242;28;20104;-72
2022/03/02 01:05:29;;;;;;;0.73;0.70;;;;;;;23.28;14.87;101224.09;5056471;28;20117;-72
2022/03/02 01:07:54;;;;;;;0.95;0.70;;;;;;;23.29;15.00;101206.66;5056380;28;20450;-74
2022/03/02 01:10:20;;;;;;;0.90;0.70;;;;;;;23.30;14.83;101207.47;5056205;28;20120;-74
2022/03/02 01:12:46;;;;;;;0.80;0.70;;;;;;;23.27;14.84;101200.63;5055946;28;20108;-74
2022/03/02 01:15:12;;;;;;;0.70;0.70;;;;;;;23.28;15.09;101201.44;5055888;28;20112;-74
2022/03/02 01:17:37;;;;;;;1.17;0.95;;;;;;;23.28;15.01;101196.81;5055483;28;20102;-74
2022/03/02 01:20:04;;;;;;;0.80;0.80;;;;;;;23.27;15.07;101194.34;5055686;28;20036;-74
2022/03/02 01:22:30;;;;;;;0.60;0.60;;;;;;;23.27;15.19;101206.09;5055381;28;20044;-74
2022/03/02 01:24:55;;;;;;;0.73;0.73;;;;;;;23.27;15.16;101197.91;5055464;28;20354;-74
2022/03/02 01:27:21;;;;;;;0.65;0.63;;;;;;;23.27;15.17;101188.88;5055728;28;20025;-74
2022/03/02 01:29:47;;;;;;;0.77;0.77;;;;;;;23.27;15.23;101189.72;5055414;28;20029;-74
2022/03/02 01:32:13;;;;;;;0.70;0.70;;;;;;;23.27;14.99;101189.72;5055300;28;20128;-74
2022/03/02 01:34:38;;;;;;;0.95;0.80;;;;;;;23.19;15.22;101166.44;5055418;28;20108;-74
2022/03/02 01:37:04;;;;;;;0.70;0.70;;;;;;;23.25;15.26;101170.06;5055355;28;20022;-74
2022/03/02 01:39:29;;;;;;;0.70;0.70;;;;;;;23.27;15.14;101170.63;5055440;28;20017;-74
2022/03/02 01:41:55;;;;;;;1.08;0.80;;;;;;;23.27;15.26;101169.78;5055593;28;20029;-74
2022/03/02 01:44:20;;;;;;;0.70;0.70;;;;;;;23.27;15.19;101167.91;5055473;28;20464;-74
2022/03/02 01:46:46;;;;;;;1.00;0.80;;;;;;;23.27;15.31;101167.06;5055191;28;20356;-74
2022/03/02 01:49:11;;;;;;;0.70;0.70;;;;;;;23.24;15.21;101166.50;5055121;28;20075;-74
2022/03/02 01:51:37;;;;;;;0.75;0.73;;;;;;;23.24;15.41;101173.88;5055170;28;20024;-74
2022/03/02 01:54:03;;;;;;;0.63;0.63;;;;;;;23.25;15.30;101180.97;5055409;28;20032;-71
2022/03/02 01:56:28;;;;;;;1.00;0.70;;;;;;;23.24;15.33;101157.50;5054931;28;20036;-71
2022/03/02 01:58:54;;;;;;;1.00;0.82;;;;;;;23.25;15.31;101164.63;5055238;28;20029;-70
2022/03/02 02:01:19;;;;;;;0.80;0.80;;;;;;;23.23;15.31;101164.88;5037680;28;20379;-72
2022/03/02 02:03:45;;;;;;;0.80;0.80;;;;;;;23.25;15.50;101164.63;5055062;28;20017;-72
2022/03/02 02:06:11;;;;;;;0.80;0.80;;;;;;;23.24;15.37;101157.50;5055018;28;20064;-72
2022/03/02 02:08:36;;;;;;;0.70;0.70;;;;;;;23.24;15.40;101162.97;5055232;28;20029;-72
2022/03/02 02:11:02;;;;;;;0.70;0.70;;;;;;;23.22;15.33;101157.75;5055565;28;20419;-71
2022/03/02 02:13:30;;;;;;;0.90;0.70;;;;;;;23.23;15.58;101155.84;5054681;28;20486;-72
2022/03/02 02:15:55;;;;;;;0.93;0.70;;;;;;;23.23;15.49;101172.19;5054852;28;20428;-72
2022/03/02 02:18:21;;;;;;;0.77;0.70;;;;;;;23.23;15.50;101174.94;5054773;28;20093;-72
2022/03/02 02:20:46;;;;;;;1.35;0.70;;;;;;;23.23;15.61;101166.75;5054988;28;20040;-71
2022/03/02 02:23:12;;;;;;;0.75;0.75;;;;;;;23.22;15.53;101163.22;5054347;28;20037;-72
2022/03/02 02:25:38;;;;;;;0.80;0.70;;;;;;;23.22;15.64;101155.03;5054529;28;20028;-71
2022/03/02 02:28:03;;;;;;;0.80;0.80;;;;;;;23.25;15.40;101162.72;5054757;28;20021;-72
2022/03/02 02:30:29;;;;;;;1.35;1.00;;;;;;;23.23;15.64;101155.84;5053711;28;20052;-72
2022/03/02 02:32:55;;;;;;;1.05;1.00;;;;;;;23.22;15.51;101148.75;5054612;28;20040;-71
2022/03/02 02:35:21;;;;;;;0.70;0.70;;;;;;;23.22;15.64;101146.84;5054197;28;20052;-74
2022/03/02 02:37:46;;;;;;;0.70;0.70;;;;;;;23.15;15.77;101129.84;5054487;28;20431;-74
2022/03/02 02:40:14;;;;;;;0.90;0.80;;;;;;;23.18;15.72;101136.69;5054143;28;20479;-75
2022/03/02 02:42:44;;;;;;;0.52;0.52;;;;;;;23.23;15.76;101144.94;5054255;28;20033;-74
2022/03/02 02:45:10;;;;;;;0.77;0.77;;;;;;;23.23;15.60;101131.31;5054314;28;20029;-74
2022/03/02 02:47:35;;;;;;;0.73;0.73;;;;;;;23.21;15.49;101120.66;5054295;28;20036;-74
2022/03/02 02:50:00;;;;;;;0.82;0.80;;;;;;;23.20;15.87;101112.75;5054176;28;20029;-74
2022/03/02 02:52:26;;;;;;;1.00;0.90;;;;;;;23.21;15.82;101114.38;5036071;28;20471;-74
2022/03/02 02:54:51;;;;;;;1.05;0.90;;;;;;;23.21;15.70;101119.84;5054324;28;20021;-74
2022/03/02 02:57:17;;;;;;;0.70;0.70;;;;;;;23.20;15.88;101116.28;5053987;28;20048;-74
2022/03/02 02:59:42;;;;;;;0.98;0.88;;;;;;;23.19;15.76;101119.25;5053633;28;20487;-74
2022/03/02 03:02:08;;;;;;;0.60;0.60;;;;;;;23.21;15.83;101119.84;5054010;28;20024;-74
2022/03/02 03:04:33;;;;;;;0.63;0.60;;;;;;;23.20;15.78;101112.75;5054074;28;20028;-73
2022/03/02 03:06:58;;;;;;;0.98;0.70;;;;;;;23.22;15.79;101113.31;5053545;28;20025;-75
2022/03/02 03:09:24;;;;;;;0.88;0.88;;;;;;;23.21;15.84;101111.66;5053849;28;20036;-74
2022/03/02 03:11:49;;;;;;;0.60;0.60;;;;;;;23.23;15.69;101098.59;5053817;28;20094;-72
2022/03/02 03:14:15;;;;;;;0.80;0.80;;;;;;;23.23;15.71;101107.59;5053446;28;20364;-71
2022/03/02 03:16:41;;;;;;;1.23;0.90;;;;;;;23.19;15.91;101102.91;5053695;28;20025;-72
2022/03/02 03:19:07;;;;;;;0.70;0.70;;;;;;;23.19;15.94;101111.09;5053396;28;20025;-71
2022/03/02 03:21:32;;;;;;;1.40;1.00;;;;;;;23.18;15.78;101103.97;5053722;28;20116;-72
2022/03/02 03:23:58;;;;;;;0.80;0.80;;;;;;;23.20;15.87;101107.28;5053517;28;20498;-71
2022/03/02 03:26:23;;;;;;;0.70;0.70;;;;;;;23.20;15.68;101104.56;5054184;28;20063;-71
2022/03/02 03:28:50;;;;;;;0.73;0.73;;;;;;;23.19;15.88;101105.63;5053621;28;20048;-72
2022/03/02 03:31:15;;;;;;;0.85;0.80;;;;;;;23.15;15.88;101094.41;5053187;28;20021;-71
2022/03/02 03:33:40;;;;;;;0.70;0.70;;;;;;;23.19;15.81;101101.00;5053375;28;20037;-72
2022/03/02 03:36:06;;;;;;;0.88;0.88;;;;;;;23.19;15.91;101102.91;5053701;28;20037;-72
2022/03/02 03:38:31;;;;;;;0.90;0.80;;;;;;;23.19;15.87;101097.47;5053793;28;20033;-71
2022/03/02 03:40:58;;;;;;;0.70;0.70;;;;;;;23.18;15.85;101090.34;5053493;28;20364;-71
2022/03/02 03:43:23;;;;;;;0.68;0.68;;;;;;;23.18;15.78;101080.28;5054433;28;20033;-71
2022/03/02 03:45:49;;;;;;;0.70;0.70;;;;;;;23.16;15.61;101081.59;5055999;28;20025;-72
2022/03/02 03:48:15;;;;;;;0.65;0.65;;;;;;;23.14;15.97;101081.03;5055298;28;20028;-71
2022/03/02 03:50:40;;;;;;;0.77;0.70;;;;;;;23.17;15.93;101078.63;5055899;28;20044;-72
2022/03/02 03:53:06;;;;;;;0.93;0.80;;;;;;;23.17;15.83;101080.53;5055983;28;20040;-72
2022/03/02 03:55:31;;;;;;;0.70;0.70;;;;;;;23.16;15.91;101084.31;5055912;28;20430;-72
2022/03/02 03:57:57;;;;;;;0.65;0.65;;;;;;;23.18;15.89;101082.16;5055605;28;20412;-72
2022/03/02 04:00:22;;;;;;;0.80;0.80;;;;;;;23.17;15.79;101081.34;5055938;28;20025;-71
2022/03/02 04:02:48;;;;;;;0.70;0.70;;;;;;;23.17;15.99;101075.06;5056980;28;20025;-72
2022/03/02 04:05:13;;;;;;;0.70;0.70;;;;;;;23.15;15.93;101078.06;5056854;28;20032;-71
2022/03/02 04:07:39;;;;;;;0.77;0.73;;;;;;;23.17;16.06;101083.25;5057106;28;20472;-71
2022/03/02 04:10:05;;;;;;;0.60;0.60;;;;;;;23.17;15.95;101081.34;5056604;28;20078;-73
2022/03/02 04:12:31;;;;;;;0.70;0.70;;;;;;;23.20;15.89;101074.56;5057152;28;20033;-74
2022/03/02 04:14:56;;;;;;;0.80;0.80;;;;;;;23.21;15.72;101070.75;5057786;28;20533;-74
2022/03/02 04:17:22;;;;;;;0.90;0.75;;;;;;;23.25;15.83;101074.63;5058422;28;20470;-74
2022/03/02 04:19:48;;;;;;;0.88;0.85;;;;;;;23.26;15.88;101073.53;5056904;28;20036;-75
2022/03/02 04:22:13;;;;;;;0.57;0.57;;;;;;;23.24;16.23;101071.06;5054127;28;20431;-74
2022/03/02 04:24:39;;;;;;;0.73;0.73;;;;;;;23.29;15.75;101078.47;5055316;28;20476;-74
2022/03/02 04:27:05;;;;;;;0.80;0.80;;;;;;;23.34;15.72;101070.34;5034922;28;20052;-75
2022/03/02 04:29:30;;;;;;;1.00;0.73;;;;;;;23.35;15.86;101074.75;5054697;28;20112;-74
2022/03/02 04:31:56;;;;;;;0.70;0.70;;;;;;;23.36;15.74;101073.66;5038984;28;20035;-74
2022/03/02 04:34:21;;;;;;;2.17;0.77;;;;;;;23.39;15.75;101067.69;5053519;28;20024;-74
2022/03/02 04:36:47;;;;;;;0.70;0.70;;;;;;;23.43;15.92;101068.00;5053325;28;20032;-74
2022/03/02 04:39:12;;;;;;;0.57;0.57;;;;;;;23.45;15.51;101065.81;5053055;28;20020;-74
2022/03/02 04:41:37;;;;;;;0.70;0.70;;;;;;;23.45;15.82;101060.38;5052637;28;20021;-75
2022/03/02 04:44:03;;;;;;;0.88;0.68;;;;;;;23.49;15.73;101066.13;5052548;28;20037;-71
2022/03/02 04:46:29;;;;;;;0.90;0.82;;;;;;;23.53;15.82;101059.91;5034604;28;20029;-71
2022/03/02 04:48:54;;;;;;;0.65;0.65;;;;;;;23.54;15.71;101060.72;5052842;28;20448;-71
2022/03/02 04:51:19;;;;;;;0.80;0.80;;;;;;;23.57;15.66;101062.94;5053467;28;20025;-71
2022/03/02 04:53:45;;;;;;;0.52;0.52;;;;;;;23.58;15.46;101070.88;5056401;28;20078;-71
2022/03/02 04:56:10;;;;;;;0.80;0.80;;;;;;;23.62;15.39;101065.72;5056090;28;20380;-71
2022/03/02 04:58:36;;;;;;;0.60;0.60;;;;;;;23.65;15.43;101073.41;5055992;28;20036;-72
2022/03/02 05:01:01;;;;;;;0.75;0.75;;;;;;;23.67;15.32;101067.69;5056143;28;20025;-71
2022/03/02 05:03:26;;;;;;;0.60;0.60;;;;;;;23.67;15.63;101063.03;5060244;28;20029;-72
2022/03/02 05:05:52;;;;;;;1.05;0.70;;;;;;;23.70;15.42;101062.53;5056650;28;20367;-72
2022/03/02 05:08:17;;;;;;;1.25;0.60;;;;;;;23.73;15.35;101062.03;5055936;28;20406;-72
2022/03/02 05:10:43;;;;;;;0.90;0.82;;;;;;;23.74;15.31;101062.84;5055596;28;20052;-71
2022/03/02 05:13:08;;;;;;;0.60;0.60;;;;;;;23.74;15.46;101047.28;5055352;28;20029;-71
2022/03/02 05:15:34;;;;;;;0.80;0.80;;;;;;;23.76;15.56;101047.84;5056180;28;20033;-71
2022/03/02 05:17:59;;;;;;;0.60;0.60;;;;;;;23.78;15.52;101053.03;5055280;28;20352;-72
2022/03/02 05:20:25;;;;;;;0.70;0.60;;;;;;;23.80;15.51;101053.59;5055723;28;20028;-72
2022/03/02 05:22:50;;;;;;;0.90;0.90;;;;;;;23.83;15.18;101049.56;5055220;28;20060;-71
2022/03/02 05:25:16;;;;;;;0.60;0.60;;;;;;;23.83;15.55;101033.19;5055568;28;20036;-72
2022/03/02 05:27:41;;;;;;;0.43;0.43;;;;;;;23.87;15.23;101042.50;5055434;28;20032;-71
2022/03/02 05:30:08;;;;;;;0.98;0.80;;;;;;;23.88;15.39;101035.97;5055532;28;20067;-71
2022/03/02 05:32:33;;;;;;;0.75;0.75;;;;;;;23.89;15.21;101038.44;5055558;28;20107;-74
2022/03/02 05:34:59;;;;;;;0.70;0.70;;;;;;;23.91;15.24;101032.72;5055339;28;20147;-74
2022/03/02 05:37:24;;;;;;;0.77;0.60;;;;;;;23.92;15.07;101029.72;5055181;28;20310;-74
2022/03/02 05:39:49;;;;;;;0.82;0.82;;;;;;;23.97;15.14;101027.03;5055178;28;20029;-74
2022/03/02 05:42:15;;;;;;;0.60;0.60;;;;;;;23.93;15.53;101011.44;5055132;28;20025;-74
2022/03/02 05:44:40;;;;;;;0.60;0.60;;;;;;;23.98;15.36;101023.19;5055078;28;20485;-74
2022/03/02 05:47:06;;;;;;;1.27;0.68;;;;;;;23.97;15.52;101021.56;5055246;28;20025;-73
2022/03/02 05:49:31;;;;;;;2.50;0.80;;;;;;;23.91;15.64;101024.53;5054958;28;20426;-73
2022/03/02 05:51:57;;;;;;;0.60;0.60;;;;;;;23.99;15.41;101027.59;5054787;28;20483;-73
2022/03/02 05:54:22;;;;;;;1.13;0.80;;;;;;;24.01;15.13;101027.34;5054742;28;20021;-73
2022/03/02 05:56:49;;;;;;;0.70;0.70;;;;;;;24.03;15.29;101019.69;5054904;28;20029;-73
2022/03/02 05:59:16;;;;;;;0.70;0.63;;;;;;;24.03;15.12;101019.69;5054772;28;20111;-74
2022/03/02 06:01:41;;;;;;;0.60;0.60;;;;;;;23.99;15.46;101010.38;5054500;28;20521;-74
2022/03/02 06:04:07;;;;;;;0.80;0.80;;;;;;;24.05;15.24;101014.78;5053801;28;20041;-74
2022/03/02 06:06:33;;;;;;;0.68;0.68;;;;;;;24.05;15.04;101014.78;5054817;28;20077;-74
2022/03/02 06:08:59;;;;;;;0.80;0.70;;;;;;;24.05;15.20;101017.53;5054486;28;20017;-74
2022/03/02 06:11:29;;;;;;;0.63;0.63;;;;;;;24.06;15.22;101019.19;5055528;28;20037;-74
2022/03/02 06:13:54;;;;;;;0.65;0.65;;;;;;;24.10;14.95;101016.75;5054742;28;20037;-72
2022/03/02 06:16:20;;;;;;;0.60;0.60;;;;;;;24.13;15.27;101019.75;5054483;28;20170;-73
2022/03/02 06:18:45;;;;;;;0.70;0.70;;;;;;;24.13;15.06;101022.50;5054935;28;20075;-71
2022/03/02 06:21:16;;;;;;;0.80;0.80;;;;;;;24.14;14.90;101018.66;5055141;28;20498;-72
2022/03/02 06:23:42;;;;;;;0.60;0.60;;;;;;;24.15;14.96;101020.31;5054143;28;20041;-71
2022/03/02 06:26:07;;;;;;;0.77;0.77;;;;;;;24.18;15.03;101018.94;5054827;28;20526;-73
2022/03/02 06:28:36;;;;;;;0.57;0.57;;;;;;;24.18;15.08;101018.94;5055038;28;20371;-71
2022/03/02 06:31:03;;;;;;;0.70;0.55;;;;;;;24.18;15.03;101014.34;5054554;28;20024;-71
2022/03/02 06:33:29;;;;;;;0.60;0.60;;;;;;;24.18;14.98;101019.81;5054929;28;20426;-70
2022/03/02 06:35:54;;;;;;;0.68;0.68;;;;;;;24.24;14.97;101011.63;5054955;28;20032;-71
2022/03/02 06:38:22;;;;;;;1.02;0.50;;;;;;;24.15;15.26;101003.94;5037122;28;20104;-71
2022/03/02 06:41:04;;;;;;;0.75;0.60;;;;;;;24.27;15.02;101016.56;5054540;28;20055;-71
2022/03/02 06:44:02;;;;;;;2.45;1.00;;;;;;;24.34;15.43;101017.16;5054666;28;20031;-71
2022/03/02 06:46:37;;;;;;;0.77;0.60;;;;;;;24.29;15.35;101020.69;4973150;28;20038;-73
2022/03/02 06:49:13;;;;;;;1.20;0.70;;;;;;;24.30;15.22;101024.22;4972932;28;20067;-71
2022/03/02 06:51:39;;;;;;;0.98;0.80;;;;;;;24.27;15.17;101030.22;4973138;28;20448;-73
2022/03/02 06:54:04;;;;;;;1.45;0.70;;;;;;;24.27;15.40;101038.44;4973696;28;20030;-72
2022/03/02 06:56:31;;;;;;;0.70;0.70;;;;;;;24.31;15.30;101026.69;4957289;28;20050;-69
2022/03/02 06:58:56;;;;;;;0.77;0.77;;;;;;;24.33;15.25;101043.63;4957525;28;20045;-71
2022/03/02 07:01:27;;;;;;;1.40;0.60;;;;;;;24.39;15.32;101052.69;4972529;28;20066;-71
2022/03/02 07:03:55;;;;;;;0.80;0.80;;;;;;;24.44;15.39;101049.16;4972581;28;20485;-71
2022/03/02 07:06:20;;;;;;;1.33;0.88;;;;;;;24.48;15.44;101040.19;4973115;28;20030;-70
2022/03/02 07:08:45;;;;;;;5.15;1.63;;;;;;;24.52;15.22;101038.53;4956896;28;20034;-70
2022/03/02 07:11:11;;;;;;;5.25;2.55;;;;;;;24.48;15.20;101033.91;4973034;28;20093;-73
2022/03/02 07:13:37;;;;;;;5.97;3.28;;;;;;;24.48;15.25;101037.44;4972772;28;20053;-72
2022/03/02 07:16:03;;;;;;;6.18;3.22;;;;;;;24.47;15.36;101024.84;4972862;28;20035;-73
2022/03/02 07:18:28;;;;;;;5.50;3.08;;;;;;;24.55;15.21;101029.84;4941722;28;20031;-71
2022/03/02 07:20:55;;;;;;;4.68;2.80;;;;;;;24.59;15.33;101032.06;4973313;28;20053;-72
2022/03/02 07:23:21;;;;;;;5.15;2.40;;;;;;;24.56;15.52;101027.97;4998992;28;20055;-70
2022/03/02 07:25:46;;;;;;;4.03;2.40;;;;;;;24.60;14.95;101025.53;5054418;28;20036;-71
2022/03/02 07:28:12;;;;;;;3.42;2.00;;;;;;;24.57;15.35;101028.78;5020191;28;20375;-72
2022/03/02 07:30:39;;;;;;;3.88;2.33;;;;;;;24.57;15.49;101037.78;5055266;28;20040;-72
2022/03/02 07:33:04;;;;;;;2.67;1.70;;;;;;;24.59;15.41;101021.13;5037476;28;20029;-74
2022/03/02 07:35:37;;;;;;;2.08;1.60;;;;;;;24.60;15.14;101011.88;5054250;28;20021;-74
2022/03/02 07:38:07;;;;;;;2.50;1.58;;;;;;;24.61;15.02;101010.75;5053729;28;20026;-74
2022/03/02 07:40:32;;;;;;;3.42;1.70;;;;;;;24.52;15.04;101003.03;5035970;28;20024;-73
2022/03/02 07:42:58;;;;;;;3.08;1.50;;;;;;;24.57;15.34;100998.72;5035805;28;20432;-75
2022/03/02 07:45:23;;;;;;;2.38;1.40;;;;;;;24.63;15.09;100986.72;5053739;28;20029;-74
2022/03/02 07:47:49;;;;;;;2.40;1.20;;;;;;;24.67;14.91;100985.09;5053490;28;20036;-75
2022/03/02 07:50:15;;;;;;;2.47;1.15;;;;;;;24.68;15.35;100981.25;5053722;28;20025;-75
2022/03/02 07:52:46;;;;;;;0.90;0.80;;;;;;;24.72;15.16;100982.38;5035749;28;20112;-73
2022/03/02 07:55:11;;;;;;;0.95;0.80;;;;;;;24.74;14.95;100972.81;5053321;28;20099;-73
2022/03/02 07:57:39;;;;;;;2.53;1.05;;;;;;;24.71;15.10;100967.88;5034841;28;20029;-72
2022/03/02 08:00:09;;;;;;;1.95;1.35;;;;;;;24.73;14.98;100971.19;5035540;28;20028;-73
2022/03/02 08:02:34;;;;;;;3.72;1.30;;;;;;;24.74;15.18;100969.28;5052880;28;20025;-73
2022/03/02 08:05:01;;;;;;;2.85;1.42;;;;;;;24.75;15.24;100962.72;5052952;28;20055;-73
2022/03/02 08:07:29;;;;;;;2.25;1.23;;;;;;;24.66;14.97;100958.84;5053021;28;20064;-74
2022/03/02 08:09:54;;;;;;;2.38;1.08;;;;;;;24.73;14.80;100952.06;5053079;28;20060;-73
2022/03/02 08:12:20;;;;;;;1.10;0.95;;;;;;;24.78;14.83;100955.88;5052773;28;20029;-74
2022/03/02 08:14:47;;;;;;;1.70;0.90;;;;;;;24.73;14.76;100943.03;5052427;28;20448;-74
2022/03/02 08:17:12;;;;;;;1.50;0.93;;;;;;;24.77;14.80;100949.59;5035061;28;20043;-72
2022/03/02 08:19:37;;;;;;;3.00;1.25;;;;;;;24.79;14.74;100941.16;5053016;28;20029;-74
2022/03/02 08:22:05;;;;;;;1.52;1.00;;;;;;;24.80;14.97;100940.03;5052533;28;20044;-74
2022/03/02 08:24:30;;;;;;;1.88;1.42;;;;;;;24.78;15.07;100934.84;5052582;28;20036;-71
2022/03/02 08:27:00;;;;;;;1.10;1.00;;;;;;;24.77;14.89;100933.22;5054074;28;20025;-72
2022/03/02 08:29:27;;;;;;;2.10;0.85;;;;;;;24.77;14.78;100937.84;5057516;28;20087;-72
2022/03/02 08:31:52;;;;;;;1.65;0.90;;;;;;;24.79;14.98;100941.97;5056779;28;20389;-70
2022/03/02 08:34:17;;;;;;;1.00;0.80;;;;;;;24.80;15.03;100931.84;5022393;28;20036;-71
2022/03/02 08:36:43;;;;;;;1.80;1.10;;;;;;;24.85;15.24;100945.50;5022967;28;20021;-70
2022/03/02 08:39:10;;;;;;;1.77;1.10;;;;;;;24.85;15.30;100946.34;5057015;28;20423;-70
2022/03/02 08:41:35;;;;;;;1.52;1.25;;;;;;;24.86;14.97;100939.78;5039313;28;20017;-74
2022/03/02 08:44:01;;;;;;;2.42;1.00;;;;;;;24.89;15.13;100941.16;5056171;28;20025;-72
2022/03/02 08:46:27;;;;;;;2.83;1.48;;;;;;;24.90;15.23;100935.41;5056802;28;20051;-72
2022/03/02 08:48:52;;;;;;;1.90;1.10;;;;;;;24.88;15.06;100928.56;5056276;28;20065;-74
2022/03/02 08:51:20;;;;;;;3.80;1.48;;;;;;;24.87;15.15;100932.41;5056321;28;20021;-72
2022/03/02 08:53:45;;;;;;;3.85;1.38;;;;;;;24.91;14.85;100928.03;5057130;28;20541;-72
2022/03/02 08:56:11;;;;;;;3.92;1.83;;;;;;;24.98;15.10;100928.59;5038400;28;20017;-71
2022/03/02 08:58:37;;;;;;;2.33;1.27;;;;;;;24.98;14.75;100922.31;5039313;28;20056;-71
2022/03/02 09:01:02;;;;;;;2.35;1.13;;;;;;;25.00;15.09;100931.06;5055944;28;20476;-71
2022/03/02 09:03:28;;;;;;;1.73;1.10;;;;;;;24.96;14.88;100919.84;5055581;28;20025;-71
2022/03/02 09:05:54;;;;;;;1.80;1.08;;;;;;;24.97;15.00;100923.41;5038527;28;20108;-71
2022/03/02 09:08:19;;;;;;;2.10;0.98;;;;;;;24.99;14.69;100923.94;5038577;28;20035;-71
2022/03/02 09:10:44;;;;;;;1.48;0.90;;;;;;;25.02;14.93;100917.94;5055887;28;20456;-72
2022/03/02 09:13:11;;;;;;;1.00;0.80;;;;;;;25.04;14.76;100921.22;5056811;28;20036;-71
2022/03/02 09:15:37;;;;;;;1.65;1.02;;;;;;;25.03;14.76;100914.94;5057045;28;20112;-72
2022/03/02 09:18:03;;;;;;;0.88;0.73;;;;;;;25.05;14.79;100911.94;5055720;28;20043;-72
2022/03/02 09:20:30;;;;;;;1.08;0.90;;;;;;;25.05;14.44;100906.47;5056147;28;20425;-73
2022/03/02 09:22:56;;;;;;;2.90;1.45;;;;;;;25.11;14.63;100905.34;5055601;28;20044;-76
2022/03/02 09:25:21;;;;;;;2.38;1.45;;;;;;;25.02;14.65;100907.00;5055967;28;20345;-75
2022/03/02 09:27:47;;;;;;;5.00;2.00;;;;;;;25.09;14.57;100896.59;5038148;28;20455;-76
2022/03/02 09:30:12;;;;;;;4.03;1.52;;;;;;;25.11;14.75;100897.16;5021100;28;20102;-75
2022/03/02 09:32:41;;;;;;;3.05;1.40;;;;;;;25.06;14.64;100891.69;5055251;28;20036;-75
2022/03/02 09:35:13;;;;;;;2.10;1.38;;;;;;;25.11;14.61;100886.22;5055905;28;20083;-76
2022/03/02 09:37:40;;;;;;;2.72;1.30;;;;;;;25.05;14.36;100890.06;5037668;28;20021;-76
2022/03/02 09:40:06;;;;;;;2.15;1.00;;;;;;;25.12;14.67;100893.34;5037989;28;20032;-75
2022/03/02 09:42:45;;;;;;;1.40;1.10;;;;;;;25.16;14.66;100899.06;5055388;28;20037;-75
2022/03/02 09:45:11;;;;;;;1.73;1.00;;;;;;;25.09;14.46;100891.13;5039167;28;20028;-74
2022/03/02 09:47:44;;;;;;;1.23;1.00;;;;;;;25.14;14.33;100893.88;5038083;28;20457;-74
2022/03/02 09:50:12;;;;;;;1.52;1.27;;;;;;;25.17;14.38;100887.88;5055769;28;20056;-73
2022/03/02 09:52:39;;;;;;;0.60;0.60;;;;;;;25.17;14.33;100882.41;5038041;28;20029;-74
2022/03/02 09:55:05;;;;;;;0.90;0.90;;;;;;;25.12;14.50;100879.66;5037530;28;20021;-75
2022/03/02 09:57:30;;;;;;;2.15;0.70;;;;;;;25.19;14.32;100887.59;5021404;28;20032;-75
2022/03/02 09:59:56;;;;;;;0.73;0.73;;;;;;;25.18;14.71;100897.72;5020983;28;20025;-75
2022/03/02 10:02:43;;;;;;;0.90;0.70;;;;;;;25.22;14.52;100890.59;5054962;28;20083;-74
2022/03/02 10:05:09;;;;;;;0.70;0.70;;;;;;;25.16;14.60;100886.22;5054944;28;20043;-72
2022/03/02 10:07:36;;;;;;;1.02;0.77;;;;;;;25.09;14.68;100886.50;5054690;28;20030;-72
2022/03/02 10:10:07;;;;;;;0.60;0.60;;;;;;;25.14;14.32;100885.66;5054848;28;20044;-71
2022/03/02 10:12:33;;;;;;;0.88;0.70;;;;;;;25.20;14.60;100892.81;5054217;28;20087;-71
2022/03/02 10:14:58;;;;;;;1.23;0.93;;;;;;;25.21;14.48;100891.69;5036869;28;20025;-72
2022/03/02 10:17:26;;;;;;;2.40;1.38;;;;;;;25.17;14.59;100890.59;5054903;28;20428;-73
2022/03/02 10:19:55;;;;;;;3.20;1.70;;;;;;;25.14;14.55;100877.47;5037052;28;20074;-72
2022/03/02 10:22:37;;;;;;;3.15;1.50;;;;;;;25.20;14.42;100870.91;5036305;28;20072;-73
2022/03/02 10:25:05;;;;;;;1.45;1.20;;;;;;;25.19;14.44;100884.88;5037107;28;20052;-73
2022/03/02 10:27:35;;;;;;;4.63;1.40;;;;;;;25.20;14.47;100884.59;5054045;28;20037;-73
2022/03/02 10:30:10;;;;;;;2.35;1.13;;;;;;;25.25;14.67;100884.63;5036193;28;20017;-72
2022/03/02 10:32:35;;;;;;;1.73;1.10;;;;;;;25.21;14.57;100888.94;5054722;28;20056;-73
2022/03/02 10:35:08;;;;;;;3.67;1.20;;;;;;;25.20;14.64;100873.66;5054362;28;20047;-75
2022/03/02 10:37:36;;;;;;;4.10;1.48;;;;;;;25.20;14.75;100861.88;5053886;28;20021;-75
2022/03/02 10:40:07;;;;;;;3.67;2.15;;;;;;;25.26;14.36;100858.91;5054417;28;20109;-74
2022/03/02 10:42:37;;;;;;;3.58;1.40;;;;;;;25.32;14.56;100834.28;5054288;28;20025;-74
2022/03/02 10:45:10;;;;;;;1.10;0.80;;;;;;;25.37;14.59;100842.47;5053613;28;20467;-74
2022/03/02 10:47:52;;;;;;;2.63;1.30;;;;;;;25.43;14.43;100835.91;5053836;28;20399;-74
2022/03/02 10:50:18;;;;;;;2.28;1.23;;;;;;;25.40;14.50;100841.94;5053139;28;20032;-73
2022/03/02 10:52:43;;;;;;;2.92;1.50;;;;;;;25.40;14.70;100837.25;5019233;28;20033;-73
2022/03/02 10:55:10;;;;;;;1.48;1.10;;;;;;;25.42;14.51;100834.25;5035984;28;20027;-74
2022/03/02 10:57:36;;;;;;;1.92;0.73;;;;;;;25.42;14.67;100834.25;5053903;28;20104;-74
2022/03/02 11:00:10;;;;;;;1.05;0.85;;;;;;;25.54;14.49;100840.25;5053765;28;20028;-75
2022/03/02 11:02:39;;;;;;;1.73;1.00;;;;;;;25.49;14.48;100835.63;5053220;28;20544;-74
2022/03/02 11:05:05;;;;;;;2.00;0.80;;;;;;;25.47;14.65;100831.50;5035634;28;20132;-73
2022/03/02 11:07:31;;;;;;;1.13;0.90;;;;;;;25.51;14.54;100827.13;5020271;28;20033;-73
2022/03/02 11:09:56;;;;;;;1.60;1.10;;;;;;;25.47;14.67;100826.03;5036252;28;20028;-75
2022/03/02 11:12:22;;;;;;;1.40;1.02;;;;;;;25.57;14.47;100836.16;5035657;28;20083;-74
2022/03/02 11:14:58;;;;;;;1.98;1.50;;;;;;;25.56;14.46;100834.50;5035698;28;20021;-74
2022/03/02 11:17:23;;;;;;;5.10;2.50;;;;;;;25.58;14.32;100824.13;5053273;28;20036;-75
2022/03/02 11:19:49;;;;;;;7.32;2.85;;;;;;;25.64;14.34;100812.84;5035683;28;20025;-73
2022/03/02 11:22:20;;;;;;;3.88;2.13;;;;;;;25.64;14.27;100807.38;5053212;28;20514;-74